createdAt,value
2023-03-28T00:00:38.330Z,1.65
2023-03-28T00:03:04.718Z,1.52
2023-03-28T00:05:31.179Z,1.65
2023-03-28T00:07:57.776Z,1.70
2023-03-28T00:10:24.143Z,1.69
2023-03-28T00:12:50.549Z,1.59
2023-03-28T00:15:16.935Z,1.84
2023-03-28T00:17:43.398Z,1.77
2023-03-28T00:20:09.751Z,1.79
2023-03-28T00:22:36.092Z,1.96
2023-03-28T00:25:02.470Z,1.87
2023-03-28T00:27:28.853Z,1.87
2023-03-28T00:29:55.245Z,1.97
2023-03-28T00:32:21.628Z,2.00
2023-03-28T00:34:48.010Z,2.10
2023-03-28T00:37:14.394Z,2.18
2023-03-28T00:39:40.735Z,2.12
2023-03-28T00:42:07.072Z,2.05
2023-03-28T00:44:33.408Z,1.95
2023-03-28T00:46:59.798Z,2.06
2023-03-28T00:49:26.222Z,2.07
2023-03-28T00:51:52.867Z,2.20
2023-03-28T00:54:19.262Z,2.30
2023-03-28T00:56:45.667Z,2.27
2023-03-28T00:59:12.013Z,2.34
2023-03-28T01:01:38.369Z,2.43
2023-03-28T01:04:04.739Z,2.47
2023-03-28T01:06:31.083Z,2.38
2023-03-28T01:08:57.465Z,2.29
2023-03-28T01:11:23.846Z,2.49
2023-03-28T01:13:50.194Z,2.66
2023-03-28T01:16:16.554Z,2.51
2023-03-28T01:18:42.927Z,2.65
2023-03-28T01:21:09.303Z,2.70
2023-03-28T01:23:35.685Z,2.75
2023-03-28T01:26:02.168Z,2.91
2023-03-28T01:28:28.684Z,3.07
2023-03-28T01:30:55.062Z,3.09
2023-03-28T01:33:21.464Z,3.26
2023-03-28T01:35:47.883Z,2.85
2023-03-28T01:38:14.327Z,2.95
2023-03-28T01:40:40.714Z,2.71
2023-03-28T01:43:07.095Z,2.79
2023-03-28T01:45:33.505Z,2.65
2023-03-28T01:47:59.932Z,2.65
2023-03-28T01:50:26.267Z,2.70
2023-03-28T01:52:52.645Z,2.62
2023-03-28T01:55:19.025Z,2.85
2023-03-28T01:57:45.434Z,2.87
2023-03-28T02:00:11.921Z,2.79
2023-03-28T02:02:38.346Z,2.63
2023-03-28T02:05:04.793Z,2.64
2023-03-28T02:07:31.181Z,2.87
2023-03-28T02:09:57.529Z,3.08
2023-03-28T02:12:23.904Z,2.86
2023-03-28T02:14:50.305Z,2.84
2023-03-28T02:17:16.694Z,3.02
2023-03-28T02:19:43.104Z,3.29
2023-03-28T02:22:09.440Z,3.20
2023-03-28T02:24:35.821Z,3.46
2023-03-28T02:27:02.170Z,3.68
2023-03-28T02:29:28.547Z,4.09
2023-03-28T02:31:55.023Z,4.19
2023-03-28T02:34:21.466Z,4.00
2023-03-28T02:36:47.829Z,3.92
2023-03-28T02:39:14.199Z,4.16
2023-03-28T02:41:40.553Z,4.01
2023-03-28T02:44:06.894Z,4.07
2023-03-28T02:46:33.331Z,3.97
2023-03-28T02:48:59.782Z,3.91
2023-03-28T02:51:26.180Z,3.93
2023-03-28T02:53:52.571Z,3.94
2023-03-28T02:56:18.920Z,3.79
2023-03-28T02:58:45.296Z,3.97
2023-03-28T03:01:11.680Z,3.94
2023-03-28T03:03:38.132Z,3.92
2023-03-28T03:06:04.637Z,3.91
2023-03-28T03:08:30.979Z,4.01
2023-03-28T03:10:57.319Z,3.79
2023-03-28T03:13:23.709Z,4.03
2023-03-28T03:15:50.130Z,4.14
2023-03-28T03:18:16.611Z,3.84
2023-03-28T03:20:42.955Z,3.86
2023-03-28T03:23:09.351Z,3.76
2023-03-28T03:25:35.752Z,3.63
2023-03-28T03:28:02.098Z,3.86
2023-03-28T03:30:28.447Z,3.82
2023-03-28T03:32:54.847Z,3.84
2023-03-28T03:35:21.294Z,3.96
2023-03-28T03:37:47.705Z,3.88
2023-03-28T03:40:14.074Z,4.00
2023-03-28T03:42:40.488Z,3.95
2023-03-28T03:45:06.839Z,3.55
2023-03-28T03:47:33.260Z,3.77
2023-03-28T03:49:59.640Z,3.83
2023-03-28T03:52:26.048Z,3.63
2023-03-28T03:54:52.401Z,3.49
2023-03-28T03:57:18.776Z,3.73
2023-03-28T03:59:45.189Z,3.83
2023-03-28T04:02:11.591Z,3.80
2023-03-28T04:04:38.002Z,3.63
2023-03-28T04:07:04.358Z,3.61
2023-03-28T04:09:30.700Z,3.70
2023-03-28T04:11:57.034Z,3.70
2023-03-28T04:14:23.373Z,3.66
2023-03-28T04:16:49.752Z,3.94
2023-03-28T04:19:16.146Z,3.90
2023-03-28T04:21:42.557Z,3.41
2023-03-28T04:24:08.940Z,3.74
2023-03-28T04:26:35.283Z,3.79
2023-03-28T04:29:01.627Z,3.71
2023-03-28T04:31:28.098Z,3.76
2023-03-28T04:33:54.453Z,5.61
2023-03-28T04:36:20.783Z,3.86
2023-03-28T04:38:47.121Z,3.42
2023-03-28T04:41:13.520Z,3.47
2023-03-28T04:43:39.861Z,3.41
2023-03-28T04:46:06.204Z,3.37
2023-03-28T04:48:32.631Z,3.31
2023-03-28T04:50:59.045Z,3.43
2023-03-28T04:53:25.388Z,3.42
2023-03-28T04:55:51.780Z,3.45
2023-03-28T04:58:18.125Z,3.49
2023-03-28T05:00:44.509Z,3.50
2023-03-28T05:03:12.832Z,3.37
2023-03-28T05:05:39.532Z,3.37
2023-03-28T05:08:05.888Z,3.67
2023-03-28T05:10:32.230Z,3.41
2023-03-28T05:12:58.587Z,3.54
2023-03-28T05:15:24.944Z,3.51
2023-03-28T05:17:51.355Z,3.46
2023-03-28T05:20:17.759Z,3.67
2023-03-28T05:22:44.164Z,3.52
2023-03-28T05:25:10.512Z,3.80
2023-03-28T05:27:36.892Z,3.74
2023-03-28T05:30:03.278Z,3.82
2023-03-28T05:32:29.682Z,3.94
2023-03-28T05:34:56.080Z,3.89
2023-03-28T05:37:22.440Z,3.95
2023-03-28T05:39:48.810Z,3.99
2023-03-28T05:42:15.160Z,4.04
2023-03-28T05:44:41.547Z,4.19
2023-03-28T05:47:07.933Z,4.11
2023-03-28T05:49:34.322Z,4.27
2023-03-28T05:52:00.712Z,4.15
2023-03-28T05:54:27.065Z,4.09
2023-03-28T05:56:53.430Z,3.79
2023-03-28T05:59:19.814Z,3.77
2023-03-28T06:01:46.162Z,4.13
2023-03-28T06:04:12.518Z,4.11
2023-03-28T06:06:38.888Z,4.21
2023-03-28T06:09:05.263Z,4.25
2023-03-28T06:11:31.785Z,3.91
2023-03-28T06:13:58.172Z,3.80
2023-03-28T06:16:30.336Z,4.18
2023-03-28T06:19:10.583Z,4.10
2023-03-28T06:21:41.031Z,3.84
2023-03-28T06:24:07.421Z,3.85
2023-03-28T06:26:33.811Z,3.66
2023-03-28T06:29:00.183Z,3.67
2023-03-28T06:31:26.553Z,3.62
2023-03-28T06:33:52.917Z,3.94
2023-03-28T06:36:19.308Z,3.86
2023-03-28T06:38:45.740Z,3.86
2023-03-28T06:41:12.101Z,4.06
2023-03-28T06:43:38.472Z,3.84
2023-03-28T06:46:04.879Z,3.68
2023-03-28T06:48:32.236Z,3.81
2023-03-28T06:51:00.364Z,3.92
2023-03-28T06:53:26.854Z,3.74
2023-03-28T06:55:53.182Z,3.81
2023-03-28T06:58:19.562Z,4.10
2023-03-28T07:00:45.907Z,4.32
2023-03-28T07:03:12.367Z,4.10
2023-03-28T07:05:38.866Z,4.18
2023-03-28T07:08:05.210Z,4.41
2023-03-28T07:10:31.578Z,4.26
2023-03-28T07:12:57.934Z,4.54
2023-03-28T07:15:24.270Z,4.69
2023-03-28T07:17:50.727Z,4.77
2023-03-28T07:20:17.116Z,4.74
2023-03-28T07:22:43.482Z,4.71
2023-03-28T07:25:09.815Z,5.16
2023-03-28T07:27:36.194Z,5.66
2023-03-28T07:30:02.585Z,5.66
2023-03-28T07:32:38.713Z,5.48
2023-03-28T07:35:09.344Z,5.12
2023-03-28T07:37:35.727Z,5.84
2023-03-28T07:40:02.229Z,6.30
2023-03-28T07:42:28.763Z,6.85
2023-03-28T07:44:55.149Z,7.00
2023-03-28T07:47:21.506Z,10.31
2023-03-28T07:49:47.829Z,8.35
2023-03-28T07:52:14.213Z,6.79
2023-03-28T07:54:40.557Z,6.83
2023-03-28T07:57:06.930Z,6.54
2023-03-28T07:59:33.283Z,6.32
2023-03-28T08:01:59.620Z,5.92
2023-03-28T08:04:26.054Z,6.41
2023-03-28T08:06:52.441Z,6.62
2023-03-28T08:09:18.828Z,6.25
2023-03-28T08:11:45.263Z,5.97
2023-03-28T08:14:11.684Z,5.99
2023-03-28T08:16:38.037Z,6.12
2023-03-28T08:21:36.082Z,6.25
2023-03-28T08:24:02.482Z,6.60
2023-03-28T08:26:28.895Z,5.95
2023-03-28T08:28:55.280Z,5.87
2023-03-28T08:31:21.711Z,5.83
2023-03-28T08:33:48.133Z,5.97
2023-03-28T08:36:14.554Z,5.75
2023-03-28T08:38:40.923Z,5.41
2023-03-28T08:41:07.259Z,5.25
2023-03-28T08:43:33.594Z,5.49
2023-03-28T08:45:59.927Z,5.53
2023-03-28T08:48:26.268Z,5.10
2023-03-28T08:50:52.610Z,5.10
2023-03-28T08:53:18.999Z,4.99
2023-03-28T08:55:45.365Z,5.18
2023-03-28T08:58:11.742Z,5.15
2023-03-28T09:00:38.097Z,5.26
2023-03-28T09:03:04.574Z,4.91
2023-03-28T09:05:31.016Z,4.68
2023-03-28T09:07:57.386Z,5.26
2023-03-28T09:10:23.756Z,5.36
2023-03-28T09:12:50.141Z,5.08
2023-03-28T09:15:16.486Z,4.74
2023-03-28T09:17:42.942Z,5.26
2023-03-28T09:20:09.338Z,5.36
2023-03-28T09:22:35.795Z,5.44
2023-03-28T09:25:02.320Z,5.51
2023-03-28T09:27:28.697Z,5.74
2023-03-28T09:29:55.034Z,5.50
2023-03-28T09:32:21.522Z,5.43
2023-03-28T09:34:47.959Z,5.58
2023-03-28T09:37:14.325Z,5.18
2023-03-28T09:39:40.720Z,5.47
2023-03-28T09:42:07.134Z,5.52
2023-03-28T09:44:43.611Z,5.53
2023-03-28T09:47:17.650Z,5.36
2023-03-28T09:49:44.021Z,4.97
2023-03-28T09:52:10.394Z,5.59
2023-03-28T09:54:36.824Z,5.61
2023-03-28T09:57:03.195Z,5.44
2023-03-28T09:59:29.591Z,5.43
2023-03-28T10:01:57.103Z,4.84
2023-03-28T10:04:23.876Z,5.17
2023-03-28T10:06:50.323Z,5.11
2023-03-28T10:09:16.753Z,5.32
2023-03-28T10:11:43.138Z,5.22
2023-03-28T10:14:09.488Z,5.35
2023-03-28T10:16:35.836Z,5.29
2023-03-28T10:19:02.180Z,5.32
2023-03-28T10:21:28.532Z,5.19
2023-03-28T10:23:54.873Z,5.38
2023-03-28T10:26:21.243Z,5.05
2023-03-28T10:28:47.631Z,4.66
2023-03-28T10:31:14.081Z,5.01
2023-03-28T10:33:40.519Z,5.01
2023-03-28T10:36:06.920Z,5.05
2023-03-28T10:38:33.254Z,4.92
2023-03-28T10:40:59.823Z,4.83
2023-03-28T10:43:26.445Z,5.32
2023-03-28T10:45:52.826Z,5.59
2023-03-28T10:48:19.189Z,5.27
2023-03-28T10:50:45.577Z,5.34
2023-03-28T10:53:11.930Z,5.29
2023-03-28T10:55:38.309Z,5.36
2023-03-28T10:58:04.650Z,5.52
2023-03-28T11:00:31.002Z,5.65
2023-03-28T11:02:57.450Z,5.53
2023-03-28T11:05:23.879Z,5.38
2023-03-28T11:07:50.277Z,5.29
2023-03-28T11:10:16.637Z,5.32
2023-03-28T11:12:54.392Z,4.78
2023-03-28T11:15:22.150Z,4.54
2023-03-28T11:17:48.519Z,4.28
2023-03-28T11:20:15.006Z,5.03
2023-03-28T11:22:42.198Z,4.84
2023-03-28T11:25:10.705Z,4.90
2023-03-28T11:27:37.038Z,5.56
2023-03-28T11:30:03.424Z,5.84
2023-03-28T11:32:29.817Z,5.34
2023-03-28T11:34:56.183Z,5.49
2023-03-28T11:37:22.572Z,5.62
2023-03-28T11:39:48.934Z,5.79
2023-03-28T11:42:15.347Z,6.09
2023-03-28T11:44:41.733Z,6.35
2023-03-28T11:47:08.118Z,6.08
2023-03-28T11:49:34.535Z,6.30
2023-03-28T11:52:00.949Z,6.04
2023-03-28T11:54:27.304Z,6.12
2023-03-28T11:56:53.776Z,6.63
2023-03-28T11:59:20.177Z,6.67
2023-03-28T12:01:46.561Z,6.53
2023-03-28T12:04:12.956Z,6.31
2023-03-28T12:06:44.059Z,6.48
2023-03-28T12:09:15.507Z,5.99
2023-03-28T12:11:41.895Z,6.00
2023-03-28T12:14:11.950Z,6.25
2023-03-28T12:16:41.947Z,6.27
2023-03-28T12:19:08.615Z,5.94
2023-03-28T12:21:34.999Z,6.29
2023-03-28T12:24:01.379Z,5.68
2023-03-28T12:26:27.785Z,5.75
2023-03-28T12:28:54.155Z,5.68
2023-03-28T12:31:20.520Z,5.76
2023-03-28T12:33:46.907Z,5.61
2023-03-28T12:36:13.303Z,5.98
2023-03-28T12:38:39.708Z,5.77
2023-03-28T12:41:06.055Z,5.76
2023-03-28T12:43:32.398Z,5.51
2023-03-28T12:45:58.807Z,5.54
2023-03-28T12:48:25.199Z,5.74
2023-03-28T12:50:51.544Z,5.88
2023-03-28T12:53:17.865Z,5.74
2023-03-28T12:55:44.202Z,5.88
2023-03-28T12:58:10.535Z,5.82
2023-03-28T13:00:37.288Z,6.02
2023-03-28T13:03:03.705Z,5.70
2023-03-28T13:05:30.045Z,5.48
2023-03-28T13:07:56.472Z,6.26
2023-03-28T13:10:22.811Z,5.85
2023-03-28T13:12:49.194Z,6.00
2023-03-28T13:15:15.569Z,5.79
2023-03-28T13:17:42.020Z,5.51
2023-03-28T13:20:08.452Z,5.61
2023-03-28T13:22:34.794Z,5.65
2023-03-28T13:25:01.159Z,5.81
2023-03-28T13:27:27.527Z,5.87
2023-03-28T13:29:53.917Z,5.92
2023-03-28T13:32:20.262Z,5.43
2023-03-28T13:34:46.621Z,4.89
2023-03-28T13:37:12.996Z,4.65
2023-03-28T13:39:39.386Z,4.92
2023-03-28T13:42:05.780Z,5.09
2023-03-28T13:44:32.144Z,4.99
2023-03-28T13:46:58.569Z,5.45
2023-03-28T13:49:24.955Z,5.58
2023-03-28T13:51:51.290Z,5.61
2023-03-28T13:54:17.673Z,5.99
2023-03-28T13:56:44.145Z,5.18
2023-03-28T13:59:10.554Z,5.71
2023-03-28T14:01:36.957Z,5.44
2023-03-28T14:04:03.363Z,4.14
2023-03-28T14:06:29.773Z,4.49
2023-03-28T14:08:56.161Z,4.56
2023-03-28T14:11:22.519Z,4.67
2023-03-28T14:13:48.916Z,5.05
2023-03-28T14:16:15.514Z,5.02
2023-03-28T14:18:41.942Z,4.78
2023-03-28T14:21:08.338Z,4.35
2023-03-28T14:23:34.684Z,3.64
2023-03-28T14:26:01.028Z,3.79
2023-03-28T14:28:27.463Z,3.92
2023-03-28T14:30:53.806Z,3.83
2023-03-28T14:33:20.404Z,3.59
2023-03-28T14:35:46.931Z,3.97
2023-03-28T14:38:13.331Z,3.85
2023-03-28T14:40:39.687Z,4.26
2023-03-28T14:43:06.063Z,3.88
2023-03-28T14:45:32.413Z,3.69
2023-03-28T14:47:58.813Z,4.19
2023-03-28T14:50:25.201Z,3.92
2023-03-28T14:52:51.585Z,3.87
2023-03-28T14:55:17.975Z,3.47
2023-03-28T14:57:44.315Z,3.31
2023-03-28T15:00:10.651Z,3.64
2023-03-28T15:02:37.111Z,3.54
2023-03-28T15:05:03.514Z,4.11
2023-03-28T15:07:29.846Z,4.27
2023-03-28T15:09:56.215Z,4.77
2023-03-28T15:12:22.616Z,4.55
2023-03-28T15:14:48.947Z,4.24
2023-03-28T15:17:15.283Z,3.94
2023-03-28T15:19:41.635Z,4.06
2023-03-28T15:22:08.112Z,3.75
2023-03-28T15:24:34.506Z,3.45
2023-03-28T15:27:00.858Z,3.76
2023-03-28T15:29:27.208Z,3.85
2023-03-28T15:31:53.571Z,3.68
2023-03-28T15:34:19.927Z,3.59
2023-03-28T15:36:46.310Z,3.45
2023-03-28T15:39:12.688Z,3.52
2023-03-28T15:41:39.037Z,3.52
2023-03-28T15:44:05.379Z,3.91
2023-03-28T15:46:31.814Z,4.32
2023-03-28T15:48:58.301Z,4.55
2023-03-28T15:51:24.642Z,4.86
2023-03-28T15:53:50.983Z,5.47
2023-03-28T15:56:17.421Z,5.66
2023-03-28T15:58:43.820Z,5.49
2023-03-28T16:01:10.197Z,5.81
2023-03-28T16:03:36.697Z,6.08
2023-03-28T16:06:10.084Z,6.03
2023-03-28T16:08:37.440Z,6.25
2023-03-28T16:11:06.312Z,5.87
2023-03-28T16:13:32.774Z,6.06
2023-03-28T16:15:59.365Z,6.19
2023-03-28T16:18:25.974Z,6.44
2023-03-28T16:20:52.312Z,6.50
2023-03-28T16:23:18.693Z,6.10
2023-03-28T16:25:45.143Z,6.35
2023-03-28T16:28:11.493Z,6.16
2023-03-28T16:30:37.832Z,6.32
2023-03-28T16:33:04.215Z,6.72
2023-03-28T16:35:30.620Z,6.33
2023-03-28T16:37:57.021Z,5.05
2023-03-28T16:40:23.411Z,14.48
2023-03-28T16:42:49.777Z,25.90
2023-03-28T16:45:16.129Z,8.75
2023-03-28T16:47:42.575Z,4.87
2023-03-28T16:50:08.989Z,4.65
2023-03-28T16:52:35.348Z,5.07
2023-03-28T16:55:01.740Z,4.88
2023-03-28T16:57:28.166Z,5.31
2023-03-28T16:59:54.617Z,5.35
2023-03-28T17:02:21.132Z,5.85
2023-03-28T17:04:47.539Z,5.82
2023-03-28T17:07:13.897Z,5.64
2023-03-28T17:09:40.279Z,5.21
2023-03-28T17:12:06.637Z,5.33
2023-03-28T17:14:32.980Z,5.24
2023-03-28T17:16:59.356Z,4.94
2023-03-28T17:19:25.756Z,4.98
2023-03-28T17:21:52.193Z,5.38
2023-03-28T17:24:18.559Z,5.44
2023-03-28T17:26:44.908Z,5.58
2023-03-28T17:29:11.307Z,5.58
2023-03-28T17:31:37.783Z,5.52
2023-03-28T17:34:04.432Z,5.14
2023-03-28T17:36:30.810Z,4.96
2023-03-28T17:38:57.177Z,5.14
2023-03-28T17:41:23.520Z,5.39
2023-03-28T17:43:49.894Z,5.05
2023-03-28T17:46:16.334Z,4.97
2023-03-28T17:48:42.713Z,5.01
2023-03-28T17:51:09.046Z,5.16
2023-03-28T17:53:35.412Z,5.19
2023-03-28T17:56:02.036Z,5.21
2023-03-28T17:58:28.606Z,4.99
2023-03-28T18:00:54.975Z,4.65
2023-03-28T18:03:21.342Z,4.83
2023-03-28T18:05:47.910Z,4.53
2023-03-28T18:08:14.282Z,6.49
2023-03-28T18:10:40.622Z,7.44
2023-03-28T18:13:06.992Z,8.36
2023-03-28T18:15:33.344Z,6.51
2023-03-28T18:17:59.749Z,5.53
2023-03-28T18:20:26.133Z,4.68
2023-03-28T18:22:52.522Z,4.81
2023-03-28T18:25:18.931Z,4.44
2023-03-28T18:27:45.271Z,4.43
2023-03-28T18:30:11.643Z,4.15
2023-03-28T18:32:38.091Z,4.68
2023-03-28T18:35:04.498Z,4.46
2023-03-28T18:37:30.978Z,4.49
2023-03-28T18:39:57.380Z,4.11
2023-03-28T18:42:23.722Z,4.16
2023-03-28T18:44:50.150Z,4.15
2023-03-28T18:47:16.562Z,4.05
2023-03-28T18:49:42.910Z,4.59
2023-03-28T18:52:09.336Z,4.74
2023-03-28T18:54:35.737Z,5.02
2023-03-28T18:57:02.146Z,5.11
2023-03-28T18:59:28.611Z,5.07
2023-03-28T19:01:55.104Z,5.80
2023-03-28T19:04:21.614Z,6.08
2023-03-28T19:06:48.078Z,6.44
2023-03-28T19:09:14.433Z,6.85
2023-03-28T19:11:40.809Z,6.54
2023-03-28T19:14:07.155Z,6.18
2023-03-28T19:16:33.570Z,6.34
2023-03-28T19:18:59.926Z,6.07
2023-03-28T19:21:26.326Z,5.76
2023-03-28T19:23:52.697Z,6.25
2023-03-28T19:26:19.050Z,6.58
2023-03-28T19:28:45.416Z,6.62
2023-03-28T19:31:11.908Z,6.19
2023-03-28T19:33:38.370Z,6.14
2023-03-28T19:36:04.956Z,6.21
2023-03-28T19:38:31.945Z,6.22
2023-03-28T19:40:58.313Z,6.34
2023-03-28T19:43:24.735Z,6.89
2023-03-28T19:45:51.133Z,6.36
2023-03-28T19:48:17.503Z,6.87
2023-03-28T19:50:43.916Z,7.06
2023-03-28T19:53:10.254Z,6.63
2023-03-28T19:55:36.681Z,6.77
2023-03-28T19:58:03.076Z,7.15
2023-03-28T20:00:29.483Z,6.67
2023-03-28T20:02:55.909Z,6.39
2023-03-28T20:05:22.275Z,6.03
2023-03-28T20:07:48.687Z,5.92
2023-03-28T20:10:15.043Z,5.82
2023-03-28T20:12:41.437Z,5.82
2023-03-28T20:15:07.797Z,5.83
2023-03-28T20:17:34.210Z,5.62
2023-03-28T20:20:00.639Z,5.36
2023-03-28T20:22:27.044Z,5.86
2023-03-28T20:24:53.395Z,6.04
2023-03-28T20:27:19.789Z,5.84
2023-03-28T20:29:46.181Z,5.84
2023-03-28T20:32:12.523Z,6.86
2023-03-28T20:34:38.866Z,7.98
2023-03-28T20:37:05.249Z,8.72
2023-03-28T20:39:31.712Z,7.06
2023-03-28T20:41:58.097Z,7.13
2023-03-28T20:44:24.542Z,6.19
2023-03-28T20:46:50.978Z,6.17
2023-03-28T20:49:17.337Z,6.12
2023-03-28T20:51:43.672Z,5.96
2023-03-28T20:54:10.022Z,6.13
2023-03-28T20:56:36.519Z,5.99
2023-03-28T20:59:02.953Z,6.19
2023-03-28T21:01:29.349Z,6.14
2023-03-28T21:03:55.777Z,6.03
2023-03-28T21:06:22.156Z,6.25
2023-03-28T21:08:48.546Z,6.04
2023-03-28T21:11:14.928Z,5.67
2023-03-28T21:13:41.304Z,5.72
2023-03-28T21:16:07.756Z,5.82
2023-03-28T21:18:34.159Z,5.59
2023-03-28T21:21:00.840Z,5.65
2023-03-28T21:23:27.360Z,5.72
2023-03-28T21:25:53.693Z,6.17
2023-03-28T21:28:20.071Z,5.99
2023-03-28T21:30:46.465Z,6.24
2023-03-28T21:33:12.815Z,6.03
2023-03-28T21:35:39.234Z,5.26
2023-03-28T21:38:05.585Z,5.08
2023-03-28T21:40:31.931Z,4.51
2023-03-28T21:42:58.270Z,4.43
2023-03-28T21:45:24.602Z,4.12
2023-03-28T21:47:51.040Z,3.69
2023-03-28T21:50:17.460Z,3.91
2023-03-28T21:52:43.812Z,3.88
2023-03-28T21:55:10.205Z,4.85
2023-03-28T21:57:36.542Z,4.56
2023-03-28T22:00:02.929Z,4.62
2023-03-28T22:02:29.359Z,4.66
2023-03-28T22:04:55.787Z,4.72
2023-03-28T22:07:22.131Z,4.46
2023-03-28T22:09:48.461Z,4.45
2023-03-28T22:12:14.840Z,4.09
2023-03-28T22:14:41.180Z,4.26
2023-03-28T22:17:07.560Z,4.34
2023-03-28T22:19:33.960Z,4.20
2023-03-28T22:22:00.357Z,4.18
2023-03-28T22:24:26.753Z,4.30
2023-03-28T22:26:53.130Z,4.30
2023-03-28T22:29:19.541Z,4.69
2023-03-28T22:31:46.033Z,4.72
2023-03-28T22:34:12.595Z,4.81
2023-03-28T22:36:38.955Z,4.57
2023-03-28T22:39:05.297Z,4.81
2023-03-28T22:41:31.734Z,5.11
2023-03-28T22:43:58.141Z,5.13
2023-03-28T22:46:24.529Z,5.03
2023-03-28T22:48:50.930Z,4.60
2023-03-28T22:51:17.309Z,4.86
2023-03-28T22:53:43.660Z,4.80
2023-03-28T22:56:10.050Z,5.10
2023-03-28T22:58:36.394Z,4.79
2023-03-28T23:01:02.960Z,5.27
2023-03-28T23:03:29.516Z,5.44
2023-03-28T23:05:55.898Z,5.56
2023-03-28T23:08:22.373Z,5.30
2023-03-28T23:10:48.807Z,5.01
2023-03-28T23:13:15.236Z,5.09
2023-03-28T23:15:41.629Z,5.16
2023-03-28T23:18:08.093Z,4.99
2023-03-28T23:20:34.494Z,4.72
2023-03-28T23:23:00.881Z,4.62
2023-03-28T23:25:27.265Z,4.34
2023-03-28T23:27:53.649Z,4.14
2023-03-28T23:30:20.000Z,4.16
2023-03-28T23:32:46.413Z,4.11
2023-03-28T23:35:12.811Z,4.23
2023-03-28T23:37:39.180Z,4.18
2023-03-28T23:40:05.526Z,3.97
2023-03-28T23:42:31.852Z,4.03
2023-03-28T23:44:58.219Z,4.17
2023-03-28T23:47:24.606Z,3.98
2023-03-28T23:49:51.028Z,4.06
2023-03-28T23:52:17.404Z,4.06
2023-03-28T23:54:43.784Z,4.20
2023-03-28T23:57:10.210Z,4.16
2023-03-28T23:59:36.645Z,3.95
